createdAt,value
2018-08-22T00:00:42.864Z,1021.26
2018-08-22T00:01:43.001Z,1021.28
2018-08-22T00:02:42.911Z,1021.29
2018-08-22T00:03:42.930Z,1021.32
2018-08-22T00:04:42.959Z,1021.29
2018-08-22T00:05:42.979Z,1021.30
2018-08-22T00:06:43.008Z,1021.29
2018-08-22T00:07:43.023Z,1021.28
2018-08-22T00:08:43.054Z,1021.27
2018-08-22T00:09:43.074Z,1021.24
2018-08-22T00:10:43.102Z,1021.23
2018-08-22T00:11:43.123Z,1021.20
2018-08-22T00:12:43.147Z,1021.17
2018-08-22T00:13:43.179Z,1021.22
2018-08-22T00:14:43.197Z,1021.18
2018-08-22T00:15:43.225Z,1021.20
2018-08-22T00:16:43.248Z,1021.19
2018-08-22T00:17:43.265Z,1021.20
2018-08-22T00:18:43.288Z,1021.17
2018-08-22T00:19:43.319Z,1021.15
2018-08-22T00:20:43.343Z,1021.16
2018-08-22T00:21:43.365Z,1021.14
2018-08-22T00:22:43.394Z,1021.14
2018-08-22T00:23:43.413Z,1021.17
2018-08-22T00:24:43.432Z,1021.17
2018-08-22T00:25:43.485Z,1021.17
2018-08-22T00:26:43.486Z,1021.13
2018-08-22T00:27:43.509Z,1021.12
2018-08-22T00:28:43.529Z,1021.14
2018-08-22T00:29:43.555Z,1021.14
2018-08-22T00:30:43.581Z,1021.13
2018-08-22T00:31:43.602Z,1021.15
2018-08-22T00:32:43.636Z,1021.15
2018-08-22T00:33:43.652Z,1021.14
2018-08-22T00:34:43.672Z,1021.16
2018-08-22T00:35:43.701Z,1021.14
2018-08-22T00:36:43.720Z,1021.10
2018-08-22T00:37:43.741Z,1021.13
2018-08-22T00:38:43.766Z,1021.15
2018-08-22T00:39:43.791Z,1021.12
2018-08-22T00:40:43.825Z,1021.14
2018-08-22T00:41:43.852Z,1021.14
2018-08-22T00:42:43.864Z,1021.10
2018-08-22T00:43:43.888Z,1021.13
2018-08-22T00:44:43.910Z,1021.10
2018-08-22T00:45:43.934Z,1021.07
2018-08-22T00:46:43.957Z,1021.07
2018-08-22T00:47:43.983Z,1021.05
2018-08-22T00:48:44.001Z,1021.04
2018-08-22T00:49:44.036Z,1021.06
2018-08-22T00:50:44.056Z,1021.07
2018-08-22T00:51:44.076Z,1021.04
2018-08-22T00:52:44.102Z,1021.00
2018-08-22T00:53:44.126Z,1021.04
2018-08-22T00:54:44.156Z,1021.01
2018-08-22T00:55:44.173Z,1021.00
2018-08-22T00:56:44.196Z,1020.97
2018-08-22T00:57:44.283Z,1020.99
2018-08-22T00:58:44.259Z,1021.00
2018-08-22T00:59:44.269Z,1021.03
2018-08-22T01:00:44.296Z,1020.99
2018-08-22T01:01:44.319Z,1020.99
2018-08-22T01:02:44.341Z,1020.95
2018-08-22T01:03:44.368Z,1020.94
2018-08-22T01:04:44.406Z,1020.95
2018-08-22T01:05:44.415Z,1020.97
2018-08-22T01:06:44.437Z,1020.99
2018-08-22T01:07:44.462Z,1020.99
2018-08-22T01:08:44.483Z,1021.01
2018-08-22T01:09:44.511Z,1020.96
2018-08-22T01:10:44.533Z,1020.94
2018-08-22T01:11:44.553Z,1020.92
2018-08-22T01:12:44.579Z,1020.91
2018-08-22T01:13:44.606Z,1020.96
2018-08-22T01:14:44.626Z,1020.96
2018-08-22T01:15:44.653Z,1020.99
2018-08-22T01:16:44.672Z,1020.99
2018-08-22T01:17:44.697Z,1021.00
2018-08-22T01:18:44.725Z,1021.00
2018-08-22T01:19:44.743Z,1021.01
2018-08-22T01:20:44.765Z,1021.02
2018-08-22T01:21:44.793Z,1021.00
2018-08-22T01:22:44.820Z,1020.99
2018-08-22T01:23:44.844Z,1020.96
2018-08-22T01:24:44.861Z,1020.94
2018-08-22T01:25:44.889Z,1020.99
2018-08-22T01:26:44.914Z,1021.01
2018-08-22T01:27:44.933Z,1020.99
2018-08-22T01:28:44.957Z,1021.00
2018-08-22T01:29:44.986Z,1020.99
2018-08-22T01:30:45.007Z,1020.99
2018-08-22T01:31:45.028Z,1020.98
2018-08-22T01:32:45.051Z,1020.96
2018-08-22T01:33:45.077Z,1020.93
2018-08-22T01:34:45.102Z,1020.96
2018-08-22T01:35:45.120Z,1020.94
2018-08-22T01:36:45.149Z,1020.89
2018-08-22T01:37:45.171Z,1020.90
2018-08-22T01:38:45.195Z,1020.88
2018-08-22T01:39:45.216Z,1020.90
2018-08-22T01:40:45.243Z,1020.92
2018-08-22T01:41:45.263Z,1020.93
2018-08-22T01:42:45.287Z,1020.94
2018-08-22T01:43:45.315Z,1020.90
2018-08-22T01:44:45.338Z,1020.88
2018-08-22T01:45:45.361Z,1020.89
2018-08-22T01:46:45.384Z,1020.87
2018-08-22T01:47:45.402Z,1020.87
2018-08-22T01:48:45.429Z,1020.85
2018-08-22T01:49:45.456Z,1020.80
2018-08-22T01:50:45.477Z,1020.85
2018-08-22T01:51:45.498Z,1020.82
2018-08-22T01:52:45.527Z,1020.84
2018-08-22T01:53:45.543Z,1020.78
2018-08-22T01:54:45.572Z,1020.78
2018-08-22T01:55:45.589Z,1020.78
2018-08-22T01:56:45.618Z,1020.75
2018-08-22T01:57:45.647Z,1020.75
2018-08-22T01:58:45.696Z,1020.75
2018-08-22T01:59:45.732Z,1020.75
2018-08-22T02:00:45.712Z,1020.75
2018-08-22T02:01:45.731Z,1020.72
2018-08-22T02:02:45.756Z,1020.70
2018-08-22T02:03:45.782Z,1020.69
2018-08-22T02:04:45.800Z,1020.68
2018-08-22T02:05:45.824Z,1020.68
2018-08-22T02:06:45.850Z,1020.68
2018-08-22T02:07:45.871Z,1020.66
2018-08-22T02:08:45.898Z,1020.66
2018-08-22T02:09:45.921Z,1020.67
2018-08-22T02:10:45.943Z,1020.65
2018-08-22T02:11:45.968Z,1020.64
2018-08-22T02:12:46.005Z,1020.65
2018-08-22T02:13:46.021Z,1020.64
2018-08-22T02:14:46.039Z,1020.64
2018-08-22T02:15:46.060Z,1020.59
2018-08-22T02:16:46.080Z,1020.60
2018-08-22T02:17:46.112Z,1020.58
2018-08-22T02:18:46.134Z,1020.52
2018-08-22T02:19:46.152Z,1020.52
2018-08-22T02:20:46.176Z,1020.54
2018-08-22T02:21:46.200Z,1020.54
2018-08-22T02:22:46.225Z,1020.51
2018-08-22T02:23:46.251Z,1020.53
2018-08-22T02:24:46.271Z,1020.48
2018-08-22T02:25:46.290Z,1020.53
2018-08-22T02:26:46.323Z,1020.51
2018-08-22T02:27:46.348Z,1020.51
2018-08-22T02:28:46.363Z,1020.50
2018-08-22T02:29:46.390Z,1020.49
2018-08-22T02:30:46.412Z,1020.49
2018-08-22T02:31:46.437Z,1020.48
2018-08-22T02:32:46.460Z,1020.46
2018-08-22T02:33:46.502Z,1020.47
2018-08-22T02:34:46.502Z,1020.43
2018-08-22T02:35:46.524Z,1020.43
2018-08-22T02:36:46.548Z,1020.43
2018-08-22T02:37:46.576Z,1020.42
2018-08-22T02:38:46.594Z,1020.46
2018-08-22T02:39:46.624Z,1020.44
2018-08-22T02:40:46.643Z,1020.44
2018-08-22T02:41:46.664Z,1020.44
2018-08-22T02:42:46.692Z,1020.42
2018-08-22T02:43:46.708Z,1020.43
2018-08-22T02:44:46.743Z,1020.46
2018-08-22T02:45:46.756Z,1020.45
2018-08-22T02:46:46.783Z,1020.44
2018-08-22T02:47:46.803Z,1020.44
2018-08-22T02:48:46.822Z,1020.42
2018-08-22T02:49:46.855Z,1020.41
2018-08-22T02:50:46.876Z,1020.44
2018-08-22T02:51:46.900Z,1020.41
2018-08-22T02:52:46.922Z,1020.45
2018-08-22T02:53:46.948Z,1020.50
2018-08-22T02:54:46.971Z,1020.48
2018-08-22T02:55:46.993Z,1020.45
2018-08-22T02:56:47.014Z,1020.43
2018-08-22T02:57:47.032Z,1020.45
2018-08-22T02:58:47.060Z,1020.45
2018-08-22T02:59:47.084Z,1020.43
2018-08-22T03:00:47.108Z,1020.43
2018-08-22T03:01:47.132Z,1020.41
2018-08-22T03:02:47.156Z,1020.41
2018-08-22T03:03:47.172Z,1020.40
2018-08-22T03:04:47.196Z,1020.38
2018-08-22T03:05:47.226Z,1020.39
2018-08-22T03:06:47.242Z,1020.40
2018-08-22T03:07:47.270Z,1020.41
2018-08-22T03:08:47.292Z,1020.41
2018-08-22T03:09:47.316Z,1020.37
2018-08-22T03:10:47.338Z,1020.41
2018-08-22T03:11:47.360Z,1020.33
2018-08-22T03:12:47.384Z,1020.35
2018-08-22T03:13:47.411Z,1020.35
2018-08-22T03:14:47.438Z,1020.35
2018-08-22T03:15:47.456Z,1020.37
2018-08-22T03:16:47.479Z,1020.37
2018-08-22T03:17:47.498Z,1020.35
2018-08-22T03:18:47.526Z,1020.36
2018-08-22T03:19:47.548Z,1020.36
2018-08-22T03:20:47.573Z,1020.35
2018-08-22T03:21:47.596Z,1020.30
2018-08-22T03:22:47.620Z,1020.32
2018-08-22T03:23:47.641Z,1020.28
2018-08-22T03:24:47.668Z,1020.29
2018-08-22T03:25:47.692Z,1020.25
2018-08-22T03:26:47.713Z,1020.27
2018-08-22T03:27:47.731Z,1020.27
2018-08-22T03:28:47.756Z,1020.28
2018-08-22T03:29:47.778Z,1020.29
2018-08-22T03:30:47.798Z,1020.28
2018-08-22T03:31:47.822Z,1020.24
2018-08-22T03:32:47.847Z,1020.26
2018-08-22T03:33:47.879Z,1020.25
2018-08-22T03:34:47.896Z,1020.22
2018-08-22T03:35:47.910Z,1020.24
2018-08-22T03:36:47.941Z,1020.21
2018-08-22T03:37:47.958Z,1020.20
2018-08-22T03:38:47.981Z,1020.22
2018-08-22T03:39:48.011Z,1020.22
2018-08-22T03:40:48.034Z,1020.20
2018-08-22T03:41:48.056Z,1020.21
2018-08-22T03:42:48.080Z,1020.17
2018-08-22T03:43:48.102Z,1020.21
2018-08-22T03:44:48.122Z,1020.21
2018-08-22T03:45:48.148Z,1020.22
2018-08-22T03:46:48.175Z,1020.21
2018-08-22T03:47:48.192Z,1020.20
2018-08-22T03:48:48.214Z,1020.23
2018-08-22T03:49:48.237Z,1020.20
2018-08-22T03:50:48.265Z,1020.23
2018-08-22T03:51:48.283Z,1020.22
2018-08-22T03:52:48.302Z,1020.21
2018-08-22T03:53:48.337Z,1020.20
2018-08-22T03:54:48.359Z,1020.16
2018-08-22T03:55:48.379Z,1020.16
2018-08-22T03:56:48.397Z,1020.17
2018-08-22T03:57:48.426Z,1020.18
2018-08-22T03:58:48.448Z,1020.17
2018-08-22T03:59:48.466Z,1020.17
2018-08-22T04:00:48.486Z,1020.16
2018-08-22T04:01:48.520Z,1020.12
2018-08-22T04:02:48.536Z,1020.13
2018-08-22T04:03:48.576Z,1020.13
2018-08-22T04:04:48.579Z,1020.12
2018-08-22T04:05:48.612Z,1020.16
2018-08-22T04:06:48.636Z,1020.12
2018-08-22T04:07:48.650Z,1020.14
2018-08-22T04:08:48.668Z,1020.17
2018-08-22T04:09:48.695Z,1020.14
2018-08-22T04:10:48.718Z,1020.10
2018-08-22T04:11:48.747Z,1020.12
2018-08-22T04:12:48.770Z,1020.12
2018-08-22T04:13:48.787Z,1020.06
2018-08-22T04:14:48.811Z,1020.09
2018-08-22T04:15:48.839Z,1020.06
2018-08-22T04:16:48.860Z,1020.05
2018-08-22T04:17:48.884Z,1020.06
2018-08-22T04:18:48.908Z,1020.06
2018-08-22T04:19:48.926Z,1020.05
2018-08-22T04:20:48.950Z,1020.04
2018-08-22T04:21:48.978Z,1020.06
2018-08-22T04:22:48.994Z,1020.09
2018-08-22T04:23:49.015Z,1020.06
2018-08-22T04:24:49.040Z,1020.09
2018-08-22T04:25:49.058Z,1020.05
2018-08-22T04:26:49.090Z,1020.07
2018-08-22T04:27:49.110Z,1020.07
2018-08-22T04:28:49.129Z,1020.10
2018-08-22T04:29:49.160Z,1020.11
2018-08-22T04:30:49.184Z,1020.12
2018-08-22T04:31:49.203Z,1020.15
2018-08-22T04:32:49.226Z,1020.10
2018-08-22T04:33:49.246Z,1020.09
2018-08-22T04:34:49.271Z,1020.06
2018-08-22T04:35:49.291Z,1020.06
2018-08-22T04:36:49.316Z,1020.13
2018-08-22T04:37:49.334Z,1020.09
2018-08-22T04:38:49.359Z,1020.11
2018-08-22T04:39:49.386Z,1020.09
2018-08-22T04:40:49.403Z,1020.09
2018-08-22T04:41:49.433Z,1020.09
2018-08-22T04:42:49.455Z,1020.05
2018-08-22T04:43:49.479Z,1020.04
2018-08-22T04:44:49.499Z,1020.04
2018-08-22T04:45:49.522Z,1020.04
2018-08-22T04:46:49.547Z,1020.08
2018-08-22T04:47:49.565Z,1020.06
2018-08-22T04:48:49.597Z,1020.07
2018-08-22T04:49:49.616Z,1020.08
2018-08-22T04:50:49.633Z,1020.08
2018-08-22T04:51:49.662Z,1020.06
2018-08-22T04:52:49.684Z,1020.07
2018-08-22T04:53:49.715Z,1020.09
2018-08-22T04:54:49.734Z,1020.11
2018-08-22T04:55:49.748Z,1020.09
2018-08-22T04:56:49.784Z,1020.09
2018-08-22T04:57:49.798Z,1020.10
2018-08-22T04:58:49.825Z,1020.10
2018-08-22T04:59:49.844Z,1020.09
2018-08-22T05:00:49.864Z,1020.13
2018-08-22T05:01:49.888Z,1020.11
2018-08-22T05:02:49.912Z,1020.11
2018-08-22T05:03:49.932Z,1020.12
2018-08-22T05:04:49.964Z,1020.13
2018-08-22T05:05:49.999Z,1020.11
2018-08-22T05:06:50.004Z,1020.11
2018-08-22T05:07:50.029Z,1020.10
2018-08-22T05:08:50.054Z,1020.14
2018-08-22T05:09:50.071Z,1020.13
2018-08-22T05:10:50.104Z,1020.14
2018-08-22T05:11:50.120Z,1020.17
2018-08-22T05:12:50.148Z,1020.12
2018-08-22T05:13:50.164Z,1020.19
2018-08-22T05:14:50.191Z,1020.16
2018-08-22T05:15:50.212Z,1020.18
2018-08-22T05:16:50.234Z,1020.16
2018-08-22T05:17:50.258Z,1020.16
2018-08-22T05:18:50.278Z,1020.14
2018-08-22T05:19:50.307Z,1020.15
2018-08-22T05:20:50.332Z,1020.14
2018-08-22T05:21:50.354Z,1020.13
2018-08-22T05:22:50.372Z,1020.16
2018-08-22T05:23:50.396Z,1020.11
2018-08-22T05:24:50.449Z,1020.15
2018-08-22T05:25:50.448Z,1020.13
2018-08-22T05:26:50.466Z,1020.10
2018-08-22T05:27:50.488Z,1020.12
2018-08-22T05:28:50.508Z,1020.10
2018-08-22T05:29:50.536Z,1020.08
2018-08-22T05:30:50.557Z,1020.10
2018-08-22T05:31:50.581Z,1020.08
2018-08-22T05:32:50.608Z,1020.07
2018-08-22T05:33:50.624Z,1020.06
2018-08-22T05:34:50.647Z,1020.06
2018-08-22T05:35:50.675Z,1020.03
2018-08-22T05:36:50.694Z,1020.07
2018-08-22T05:37:50.720Z,1020.07
2018-08-22T05:38:50.738Z,1020.09
2018-08-22T05:39:50.768Z,1020.06
2018-08-22T05:40:50.782Z,1020.09
2018-08-22T05:41:50.813Z,1020.06
2018-08-22T05:42:50.832Z,1020.07
2018-08-22T05:43:50.854Z,1020.07
2018-08-22T05:44:50.878Z,1020.08
2018-08-22T05:45:50.899Z,1020.09
2018-08-22T05:46:50.922Z,1020.12
2018-08-22T05:47:50.950Z,1020.11
2018-08-22T05:48:50.966Z,1020.09
2018-08-22T05:49:50.993Z,1020.11
2018-08-22T05:50:51.022Z,1020.12
2018-08-22T05:51:51.041Z,1020.10
2018-08-22T05:52:51.059Z,1020.13
2018-08-22T05:53:51.088Z,1020.11
2018-08-22T05:54:51.115Z,1020.12
2018-08-22T05:55:51.132Z,1020.13
2018-08-22T05:56:51.157Z,1020.14
2018-08-22T05:57:51.175Z,1020.14
2018-08-22T05:58:51.200Z,1020.12
2018-08-22T05:59:51.225Z,1020.14
2018-08-22T06:00:51.249Z,1020.09
2018-08-22T06:01:51.272Z,1020.10
2018-08-22T06:02:51.292Z,1020.07
2018-08-22T06:03:51.320Z,1020.07
2018-08-22T06:04:51.338Z,1020.09
2018-08-22T06:05:51.366Z,1020.05
2018-08-22T06:06:51.396Z,1020.05
2018-08-22T06:07:51.415Z,1020.07
2018-08-22T06:08:51.433Z,1020.09
2018-08-22T06:09:51.465Z,1020.05
2018-08-22T06:10:51.478Z,1020.02
2018-08-22T06:11:51.502Z,1020.03
2018-08-22T06:12:51.520Z,1020.00
2018-08-22T06:13:51.553Z,1020.00
2018-08-22T06:14:51.585Z,1020.02
2018-08-22T06:15:51.596Z,1020.02
2018-08-22T06:16:51.645Z,1020.04
2018-08-22T06:17:51.642Z,1020.04
2018-08-22T06:18:51.672Z,1020.02
2018-08-22T06:19:51.694Z,1020.03
2018-08-22T06:20:51.713Z,1020.00
2018-08-22T06:21:51.737Z,1019.99
2018-08-22T06:22:51.756Z,1019.99
2018-08-22T06:23:51.790Z,1019.97
2018-08-22T06:24:51.802Z,1019.99
2018-08-22T06:25:51.828Z,1019.99
2018-08-22T06:26:51.850Z,1019.98
2018-08-22T06:27:51.873Z,1020.00
2018-08-22T06:28:51.901Z,1020.02
2018-08-22T06:29:51.920Z,1020.03
2018-08-22T06:30:51.946Z,1020.02
2018-08-22T06:31:51.980Z,1020.03
2018-08-22T06:32:52.025Z,1020.04
2018-08-22T06:33:52.023Z,1020.06
2018-08-22T06:34:52.046Z,1020.05
2018-08-22T06:35:52.061Z,1020.07
2018-08-22T06:36:52.093Z,1020.04
2018-08-22T06:37:52.126Z,1020.08
2018-08-22T06:38:52.133Z,1020.06
2018-08-22T06:39:52.161Z,1020.04
2018-08-22T06:40:52.186Z,1020.06
2018-08-22T06:41:52.210Z,1020.07
2018-08-22T06:42:52.226Z,1020.05
2018-08-22T06:43:52.253Z,1020.04
2018-08-22T06:44:52.270Z,1020.06
2018-08-22T06:45:52.300Z,1020.05
2018-08-22T06:46:52.323Z,1020.02
2018-08-22T06:47:52.339Z,1020.05
2018-08-22T06:48:52.368Z,1020.04
2018-08-22T06:49:52.388Z,1020.03
2018-08-22T06:50:52.410Z,1020.06
2018-08-22T06:51:52.441Z,1020.01
2018-08-22T06:52:52.464Z,1020.00
2018-08-22T06:53:52.487Z,1019.99
2018-08-22T06:54:52.508Z,1020.03
2018-08-22T06:55:52.534Z,1020.02
2018-08-22T06:56:52.553Z,1020.04
2018-08-22T06:57:52.578Z,1020.04
2018-08-22T06:58:52.602Z,1020.01
2018-08-22T06:59:52.621Z,1020.01
2018-08-22T07:00:52.650Z,1020.00
2018-08-22T07:01:52.671Z,1020.00
2018-08-22T07:02:52.695Z,1019.96
2018-08-22T07:03:52.718Z,1019.95
2018-08-22T07:04:52.742Z,1020.01
2018-08-22T07:05:52.765Z,1019.99
2018-08-22T07:06:52.793Z,1019.99
2018-08-22T07:07:52.847Z,1019.98
2018-08-22T07:08:52.841Z,1020.00
2018-08-22T07:09:52.863Z,1020.01
2018-08-22T07:10:52.881Z,1020.03
2018-08-22T07:11:52.910Z,1020.06
2018-08-22T07:12:52.930Z,1020.04
2018-08-22T07:13:52.993Z,1020.03
2018-08-22T07:14:52.982Z,1020.01
2018-08-22T07:15:53.000Z,1020.04
2018-08-22T07:16:53.024Z,1020.02
2018-08-22T07:17:53.052Z,1020.03
2018-08-22T07:18:53.075Z,1020.04
2018-08-22T07:19:53.094Z,1020.06
2018-08-22T07:20:53.172Z,1020.01
2018-08-22T07:21:53.142Z,1020.00
2018-08-22T07:22:53.170Z,1020.01
2018-08-22T07:23:53.192Z,1020.00
2018-08-22T07:24:53.221Z,1019.98
2018-08-22T07:25:53.242Z,1020.02
2018-08-22T07:26:53.264Z,1020.01
2018-08-22T07:27:53.288Z,1020.01
2018-08-22T07:28:53.312Z,1020.03
2018-08-22T07:29:53.332Z,1020.03
2018-08-22T07:30:53.356Z,1020.00
2018-08-22T07:31:53.390Z,1019.99
2018-08-22T07:32:53.405Z,1019.99
2018-08-22T07:33:53.433Z,1019.95
2018-08-22T07:34:53.463Z,1019.95
2018-08-22T07:35:53.641Z,1019.97
2018-08-22T07:36:53.506Z,1019.97
2018-08-22T07:37:53.526Z,1019.97
2018-08-22T07:38:53.551Z,1019.98
2018-08-22T07:39:53.582Z,1019.98
2018-08-22T07:40:53.606Z,1019.98
2018-08-22T07:41:53.620Z,1019.98
2018-08-22T07:42:53.648Z,1019.99
2018-08-22T07:43:53.675Z,1019.97
2018-08-22T07:44:53.694Z,1020.01
2018-08-22T07:45:53.712Z,1019.99
2018-08-22T07:46:53.736Z,1020.01
2018-08-22T07:47:53.764Z,1019.98
2018-08-22T07:48:53.788Z,1020.01
2018-08-22T07:49:53.814Z,1020.03
2018-08-22T07:50:53.839Z,1020.02
2018-08-22T07:51:53.857Z,1020.04
2018-08-22T07:52:53.904Z,1020.04
2018-08-22T07:53:53.906Z,1020.01
2018-08-22T07:54:53.934Z,1020.01
2018-08-22T07:55:53.962Z,1020.02
2018-08-22T07:56:54.038Z,1020.00
2018-08-22T07:57:54.004Z,1019.99
2018-08-22T07:58:54.036Z,1020.02
2018-08-22T07:59:54.052Z,1019.95
2018-08-22T08:00:54.078Z,1019.99
2018-08-22T08:01:54.156Z,1019.99
2018-08-22T08:02:54.130Z,1020.01
2018-08-22T08:03:54.151Z,1020.02
2018-08-22T08:04:54.180Z,1019.95
2018-08-22T08:05:54.193Z,1019.94
2018-08-22T08:06:54.285Z,1019.97
2018-08-22T08:07:54.251Z,1019.95
2018-08-22T08:08:54.268Z,1019.92
2018-08-22T08:09:54.300Z,1019.94
2018-08-22T08:10:54.380Z,1019.90
2018-08-22T08:11:54.343Z,1019.91
2018-08-22T08:12:54.394Z,1019.94
2018-08-22T08:13:54.394Z,1019.95
2018-08-22T08:14:54.423Z,1019.96
2018-08-22T08:15:54.444Z,1019.97
2018-08-22T08:16:54.467Z,1019.95
2018-08-22T08:17:54.513Z,1019.92
2018-08-22T08:18:54.517Z,1019.91
2018-08-22T08:19:54.540Z,1019.84
2018-08-22T08:20:54.568Z,1019.86
2018-08-22T08:21:54.589Z,1019.78
2018-08-22T08:22:54.610Z,1019.84
2018-08-22T08:23:54.636Z,1019.84
2018-08-22T08:24:54.666Z,1019.83
2018-08-22T08:25:54.682Z,1019.81
2018-08-22T08:26:54.712Z,1019.81
2018-08-22T08:27:54.733Z,1019.75
2018-08-22T08:28:54.760Z,1019.75
2018-08-22T08:29:54.782Z,1019.75
2018-08-22T08:30:54.809Z,1019.77
2018-08-22T08:31:54.835Z,1019.72
2018-08-22T08:32:54.853Z,1019.74
2018-08-22T08:33:54.880Z,1019.79
2018-08-22T08:34:54.905Z,1019.72
2018-08-22T08:35:54.928Z,1019.72
2018-08-22T08:36:54.952Z,1019.72
2018-08-22T08:37:54.981Z,1019.69
2018-08-22T08:38:55.004Z,1019.68
2018-08-22T08:39:55.040Z,1019.69
2018-08-22T08:40:55.055Z,1019.67
2018-08-22T08:41:55.079Z,1019.64
2018-08-22T08:42:55.106Z,1019.65
2018-08-22T08:43:55.127Z,1019.65
2018-08-22T08:44:55.149Z,1019.59
2018-08-22T08:45:55.175Z,1019.63
2018-08-22T08:47:55.223Z,1019.57
2018-08-22T08:48:55.255Z,1019.60
2018-08-22T08:49:55.278Z,1019.59
2018-08-22T08:50:55.501Z,1019.59
2018-08-22T08:51:55.524Z,1019.58
2018-08-22T08:52:55.353Z,1019.62
2018-08-22T08:53:55.371Z,1019.59
2018-08-22T08:54:55.401Z,1019.62
2018-08-22T08:55:55.427Z,1019.55
2018-08-22T08:56:55.479Z,1019.56
2018-08-22T08:57:55.479Z,1019.50
2018-08-22T08:58:55.497Z,1019.50
2018-08-22T08:59:55.519Z,1019.48
2018-08-22T09:00:55.547Z,1019.45
2018-08-22T09:01:55.577Z,1019.42
2018-08-22T09:02:55.597Z,1019.40
2018-08-22T09:03:55.672Z,1019.39
2018-08-22T09:04:55.649Z,1019.35
2018-08-22T09:05:55.668Z,1019.33
2018-08-22T09:06:55.698Z,1019.35
2018-08-22T09:07:55.725Z,1019.35
2018-08-22T09:08:55.750Z,1019.35
2018-08-22T09:09:55.774Z,1019.32
2018-08-22T09:10:55.793Z,1019.29
2018-08-22T09:11:55.817Z,1019.35
2018-08-22T09:12:55.845Z,1019.31
2018-08-22T09:13:55.889Z,1019.29
2018-08-22T09:15:55.921Z,1019.26
2018-08-22T09:16:55.949Z,1019.28
2018-08-22T09:17:55.973Z,1019.28
2018-08-22T09:18:55.995Z,1019.28
2018-08-22T09:19:56.023Z,1019.24
2018-08-22T09:20:56.050Z,1019.24
2018-08-22T09:21:56.076Z,1019.22
2018-08-22T09:22:56.093Z,1019.19
2018-08-22T09:23:56.165Z,1019.11
2018-08-22T09:24:56.142Z,1019.16
2018-08-22T09:25:56.169Z,1019.15
2018-08-22T09:26:56.201Z,1019.12
2018-08-22T09:27:56.217Z,1019.13
2018-08-22T09:28:56.253Z,1019.12
2018-08-22T09:29:56.312Z,1019.10
2018-08-22T09:30:56.303Z,1019.10
2018-08-22T09:31:56.323Z,1019.08
2018-08-22T09:32:56.351Z,1019.02
2018-08-22T09:33:56.375Z,1019.02
2018-08-22T09:34:56.399Z,1019.02
2018-08-22T09:35:56.437Z,1019.04
2018-08-22T09:36:56.453Z,1019.03
2018-08-22T09:37:56.478Z,1019.03
2018-08-22T09:38:56.516Z,1019.04
2018-08-22T09:39:56.553Z,1019.06
2018-08-22T09:40:56.557Z,1019.06
2018-08-22T09:41:56.583Z,1019.05
2018-08-22T09:42:56.604Z,1019.01
2018-08-22T09:43:56.636Z,1019.03
2018-08-22T09:44:56.657Z,1019.02
2018-08-22T09:45:56.685Z,1019.01
2018-08-22T09:46:56.707Z,1018.95
2018-08-22T09:47:56.731Z,1019.00
2018-08-22T09:48:56.752Z,1018.95
2018-08-22T09:49:56.781Z,1019.00
2018-08-22T09:50:56.884Z,1018.94
2018-08-22T09:51:56.835Z,1018.95
2018-08-22T09:52:56.859Z,1018.95
2018-08-22T09:53:56.891Z,1018.92
2018-08-22T09:54:56.909Z,1018.91
2018-08-22T09:55:56.939Z,1018.93
2018-08-22T09:56:56.967Z,1018.90
2018-08-22T09:57:56.985Z,1018.86
2018-08-22T09:58:57.041Z,1018.87
2018-08-22T09:59:57.117Z,1018.85
2018-08-22T10:00:57.095Z,1018.87
2018-08-22T10:01:57.093Z,1018.87
2018-08-22T10:02:57.119Z,1018.80
2018-08-22T10:03:57.150Z,1018.78
2018-08-22T10:04:57.167Z,1018.78
2018-08-22T10:05:57.195Z,1018.75
2018-08-22T10:06:57.225Z,1018.71
2018-08-22T10:07:57.250Z,1018.72
2018-08-22T10:08:57.275Z,1018.73
2018-08-22T10:09:57.369Z,1018.76
2018-08-22T10:10:57.329Z,1018.75
2018-08-22T10:11:57.364Z,1018.76
2018-08-22T10:12:57.375Z,1018.70
2018-08-22T10:13:57.403Z,1018.66
2018-08-22T10:14:57.433Z,1018.66
2018-08-22T10:15:57.464Z,1018.62
2018-08-22T10:16:57.480Z,1018.60
2018-08-22T10:17:57.503Z,1018.60
2018-08-22T10:18:57.580Z,1018.64
2018-08-22T10:19:57.559Z,1018.61
2018-08-22T10:20:57.587Z,1018.56
2018-08-22T10:21:57.612Z,1018.48
2018-08-22T10:22:57.637Z,1018.54
2018-08-22T10:23:57.669Z,1018.52
2018-08-22T10:24:57.694Z,1018.55
2018-08-22T10:25:57.719Z,1018.55
2018-08-22T10:26:57.757Z,1018.47
2018-08-22T10:27:57.775Z,1018.56
2018-08-22T10:28:57.790Z,1018.54
2018-08-22T10:29:57.823Z,1018.51
2018-08-22T10:30:57.849Z,1018.49
2018-08-22T10:31:57.872Z,1018.48
2018-08-22T10:32:57.953Z,1018.50
2018-08-22T10:33:57.930Z,1018.55
2018-08-22T10:34:57.957Z,1018.57
2018-08-22T10:35:57.985Z,1018.57
2018-08-22T10:36:58.003Z,1018.56
2018-08-22T10:37:58.060Z,1018.51
2018-08-22T10:39:58.150Z,1018.55
2018-08-22T10:40:58.112Z,1018.52
2018-08-22T10:41:58.141Z,1018.52
2018-08-22T10:42:58.163Z,1018.51
2018-08-22T10:43:58.190Z,1018.51
2018-08-22T10:44:58.218Z,1018.49
2018-08-22T10:45:58.246Z,1018.55
2018-08-22T10:46:58.273Z,1018.43
2018-08-22T10:47:58.303Z,1018.44
2018-08-22T10:48:58.327Z,1018.50
2018-08-22T10:49:58.350Z,1018.53
2018-08-22T10:50:58.389Z,1018.54
2018-08-22T10:51:58.408Z,1018.57
2018-08-22T10:52:58.436Z,1018.59
2018-08-22T10:53:58.492Z,1018.58
2018-08-22T10:54:58.490Z,1018.60
2018-08-22T10:55:58.520Z,1018.66
2018-08-22T10:56:58.552Z,1018.69
2018-08-22T10:57:58.576Z,1018.80
2018-08-22T10:58:58.612Z,1018.78
2018-08-22T10:59:58.634Z,1018.81
2018-08-22T11:00:58.660Z,1018.82
2018-08-22T11:01:58.705Z,1018.82
2018-08-22T11:02:58.720Z,1018.80
2018-08-22T11:04:41.303Z,1018.82
2018-08-22T11:05:41.333Z,1018.88
2018-08-22T11:07:41.391Z,1018.81
2018-08-22T11:08:41.429Z,1018.80
2018-08-22T11:09:41.459Z,1018.79
2018-08-22T11:10:41.490Z,1018.81
2018-08-22T11:11:41.527Z,1018.87
2018-08-22T11:12:41.554Z,1018.89
2018-08-22T11:13:41.592Z,1018.83
2018-08-22T11:14:41.629Z,1018.89
2018-08-22T11:15:41.664Z,1018.83
2018-08-22T11:16:41.693Z,1018.83
2018-08-22T11:17:41.725Z,1018.83
2018-08-22T11:18:41.763Z,1018.86
2018-08-22T11:19:41.795Z,1018.80
2018-08-22T11:20:41.827Z,1018.84
2018-08-22T11:21:41.868Z,1018.83
2018-08-22T11:22:41.905Z,1018.83
2018-08-22T11:23:41.937Z,1018.82
2018-08-22T11:24:41.973Z,1018.84
2018-08-22T11:25:42.011Z,1018.76
2018-08-22T11:26:42.053Z,1018.77
2018-08-22T11:27:42.078Z,1018.79
2018-08-22T11:28:42.121Z,1018.81
2018-08-22T11:29:42.159Z,1018.73
2018-08-22T11:30:42.191Z,1018.75
2018-08-22T11:31:42.233Z,1018.76
2018-08-22T11:32:42.258Z,1018.78
2018-08-22T11:33:42.301Z,1018.69
2018-08-22T11:34:42.337Z,1018.73
2018-08-22T11:35:42.377Z,1018.67
2018-08-22T11:36:42.407Z,1018.68
2018-08-22T11:37:42.449Z,1018.71
2018-08-22T11:38:42.485Z,1018.65
2018-08-22T11:39:42.520Z,1018.66
2018-08-22T11:40:42.563Z,1018.59
2018-08-22T11:41:42.594Z,1018.65
2018-08-22T11:42:42.637Z,1018.64
2018-08-22T11:46:42.837Z,1018.59
2018-08-22T11:47:43.048Z,1018.53
2018-08-22T11:48:42.859Z,1018.56
2018-08-22T11:50:31.279Z,1018.56
2018-08-22T11:52:13.065Z,1018.57
2018-08-22T11:53:13.505Z,1018.55
2018-08-22T11:54:14.355Z,1018.55
2018-08-22T11:55:13.179Z,1018.57
2018-08-22T11:56:13.232Z,1018.57
2018-08-22T12:00:08.484Z,1018.55
2018-08-22T12:01:08.528Z,1018.59
2018-08-22T12:02:08.562Z,1018.55
2018-08-22T12:03:08.605Z,1018.56
2018-08-22T12:04:08.646Z,1018.57
2018-08-22T12:05:08.679Z,1018.58
2018-08-22T12:06:08.717Z,1018.60
2018-08-22T12:07:08.761Z,1018.61
2018-08-22T12:08:09.203Z,1018.64
2018-08-22T12:09:08.837Z,1018.63
2018-08-22T12:10:08.873Z,1018.60
2018-08-22T12:11:08.914Z,1018.63
2018-08-22T12:12:08.953Z,1018.62
2018-08-22T12:13:11.619Z,1018.66
2018-08-22T12:14:09.035Z,1018.58
2018-08-22T12:15:09.073Z,1018.52
2018-08-22T12:16:09.132Z,1018.50
2018-08-22T12:17:09.152Z,1018.50
2018-08-22T12:18:09.197Z,1018.45